All City Stadium (Denver), Colorado
Current Conditions -  °F | °C
As of 3:53 AM on Saturday 20 Dec 2014 (Local Time) from KAPA Reporting Station
Scattered Clouds Scattered Clouds  
Wind Chill: -4°   Ceiling: Unl
Heat Index: -1°   Visibility: 10mi
Dew Point: -9°   Wind: 6mph
Humidity: 56%   Direction: 180°S
Pressure: 29.99"   Gusts: NA
Location:  39.69109°N, 104.9663°W
Report Text: KAPA 201053Z 18005KT 10SM SCT150 SCT220 M01/M09 A2999 RMK AO2 SLP171 T10111089
Loading
Personal Weather Stations






























Interactive Weather Map New forecast layout! Learn more

10-Day Weather Forecast

Advertisements
Track Severe Weather on mobile